createdAt,value
2023-11-22T00:04:43.513Z,8.72
2023-11-22T00:09:47.617Z,8.60
2023-11-22T00:14:50.754Z,8.56
2023-11-22T00:19:53.977Z,8.54
2023-11-22T00:24:56.288Z,8.42
2023-11-22T00:29:59.113Z,8.33
2023-11-22T00:35:01.654Z,8.27
2023-11-22T00:40:12.149Z,8.12
2023-11-22T00:45:14.824Z,7.92
2023-11-22T00:50:21.087Z,7.81
2023-11-22T00:55:23.690Z,7.82
2023-11-22T01:00:26.065Z,7.61
2023-11-22T01:05:28.768Z,7.53
2023-11-22T01:10:31.308Z,7.52
2023-11-22T01:15:33.756Z,7.67
2023-11-22T01:20:36.277Z,7.77
2023-11-22T01:25:38.900Z,7.78
2023-11-22T01:30:41.104Z,7.81
2023-11-22T01:35:43.274Z,7.75
2023-11-22T01:40:48.976Z,7.70
2023-11-22T01:45:51.510Z,7.53
2023-11-22T01:50:53.695Z,7.33
2023-11-22T01:55:56.123Z,7.31
2023-11-22T02:00:59.638Z,7.20
2023-11-22T02:06:02.079Z,7.17
2023-11-22T02:11:04.924Z,7.13
2023-11-22T02:16:07.994Z,7.14
2023-11-22T02:21:10.268Z,7.13
2023-11-22T02:26:13.283Z,7.09
2023-11-22T02:31:16.136Z,7.00
2023-11-22T02:36:20.694Z,6.91
2023-11-22T02:41:23.464Z,6.81
2023-11-22T02:46:27.560Z,6.75
2023-11-22T02:51:30.062Z,6.78
2023-11-22T02:56:32.345Z,6.81
2023-11-22T03:01:36.055Z,6.82
2023-11-22T03:06:38.503Z,6.82
2023-11-22T03:11:40.824Z,6.92
2023-11-22T03:16:44.143Z,7.02
2023-11-22T03:21:47.079Z,7.11
2023-11-22T03:26:49.302Z,7.32
2023-11-22T03:31:51.552Z,7.45
2023-11-22T03:36:53.774Z,7.49
2023-11-22T03:41:56.140Z,7.54
2023-11-22T03:46:58.543Z,7.43
2023-11-22T03:52:00.903Z,7.25
2023-11-22T03:57:03.518Z,7.17
2023-11-22T04:02:06.841Z,7.02
2023-11-22T04:07:09.664Z,6.92
2023-11-22T04:12:12.041Z,6.80
2023-11-22T04:17:14.347Z,6.75
2023-11-22T04:22:17.903Z,6.62
2023-11-22T04:27:20.109Z,6.59
2023-11-22T04:32:26.229Z,6.56
2023-11-22T04:37:33.578Z,6.52
2023-11-22T04:42:37.746Z,6.48
2023-11-22T04:47:41.356Z,6.45
2023-11-22T04:52:43.755Z,6.37
2023-11-22T04:57:47.231Z,6.28
2023-11-22T05:02:49.412Z,6.22
2023-11-22T05:07:51.822Z,6.20
2023-11-22T05:12:54.459Z,6.09
2023-11-22T05:17:57.358Z,6.11
2023-11-22T05:22:59.561Z,5.91
2023-11-22T05:28:02.113Z,5.85
2023-11-22T05:33:04.475Z,5.64
2023-11-22T05:38:06.770Z,5.72
2023-11-22T05:43:12.822Z,5.68
2023-11-22T05:48:15.359Z,5.68
2023-11-22T05:53:21.052Z,5.58
2023-11-22T05:58:23.661Z,5.58
2023-11-22T06:03:26.080Z,5.52
2023-11-22T06:08:28.488Z,5.57
2023-11-22T06:13:30.947Z,5.58
2023-11-22T06:18:34.658Z,5.61
2023-11-22T06:23:37.206Z,5.51
2023-11-22T06:28:39.482Z,5.68
2023-11-22T06:33:41.694Z,5.82
2023-11-22T06:38:44.405Z,5.98
2023-11-22T06:43:46.990Z,6.19
2023-11-22T06:48:50.843Z,6.40
2023-11-22T06:53:56.711Z,6.54
2023-11-22T06:59:00.098Z,6.84
2023-11-22T07:04:05.364Z,6.97
2023-11-22T07:09:10.899Z,7.03
2023-11-22T07:14:13.561Z,7.04
2023-11-22T07:19:16.309Z,7.03
2023-11-22T07:24:19.822Z,7.02
2023-11-22T07:29:22.681Z,6.96
2023-11-22T07:34:24.988Z,6.96
2023-11-22T07:39:30.683Z,7.01
2023-11-22T07:44:34.094Z,7.03
2023-11-22T07:49:40.660Z,7.11
2023-11-22T07:54:42.809Z,7.23
2023-11-22T07:59:45.133Z,7.29
2023-11-22T08:04:49.304Z,7.46
2023-11-22T08:09:51.882Z,7.61
2023-11-22T08:14:56.994Z,7.67
2023-11-22T08:20:01.395Z,7.81
2023-11-22T08:25:05.282Z,8.01
2023-11-22T08:30:14.842Z,8.14
2023-11-22T08:35:17.038Z,8.20
2023-11-22T08:40:24.949Z,8.39
2023-11-22T08:45:30.561Z,8.59
2023-11-22T08:50:33.150Z,8.77
2023-11-22T08:55:35.341Z,8.98
2023-11-22T09:00:38.272Z,9.34
2023-11-22T09:05:41.378Z,9.64
2023-11-22T09:10:43.903Z,10.83
2023-11-22T09:15:46.389Z,12.93
2023-11-22T09:20:49.604Z,13.90
2023-11-22T09:25:52.603Z,14.32
2023-11-22T09:30:55.115Z,15.22
2023-11-22T09:35:57.267Z,15.21
2023-11-22T09:41:01.056Z,15.16
2023-11-22T09:46:04.726Z,14.78
2023-11-22T09:51:12.909Z,15.35
2023-11-22T09:56:15.870Z,15.56
2023-11-22T10:01:18.744Z,15.92
2023-11-22T10:06:21.762Z,15.54
2023-11-22T10:11:24.016Z,15.97
2023-11-22T10:16:26.662Z,16.20
2023-11-22T10:21:31.943Z,16.30
2023-11-22T10:26:36.825Z,16.22
2023-11-22T10:31:39.580Z,15.65
2023-11-22T10:36:42.008Z,15.56
2023-11-22T10:41:45.231Z,15.73
2023-11-22T10:46:48.694Z,14.98
2023-11-22T10:51:53.625Z,14.31
2023-11-22T10:57:04.098Z,13.68
2023-11-22T11:02:08.312Z,13.50
2023-11-22T11:07:16.779Z,13.33
2023-11-22T11:12:22.576Z,13.24
2023-11-22T11:17:25.751Z,13.29
2023-11-22T11:22:28.781Z,13.17
2023-11-22T11:27:35.203Z,13.22
2023-11-22T11:32:39.648Z,13.20
2023-11-22T11:37:42.313Z,13.29
2023-11-22T11:42:48.427Z,13.22
2023-11-22T11:47:51.626Z,13.22
2023-11-22T11:52:55.167Z,13.29
2023-11-22T11:57:57.699Z,13.26
2023-11-22T12:03:00.888Z,13.15
2023-11-22T12:08:03.993Z,13.14
2023-11-22T12:13:06.592Z,13.15
2023-11-22T12:18:09.532Z,13.10
2023-11-22T12:23:12.909Z,13.14
2023-11-22T12:28:20.967Z,13.21
2023-11-22T12:33:24.868Z,13.20
2023-11-22T12:38:30.883Z,13.24
2023-11-22T12:43:43.735Z,13.32
2023-11-22T12:48:53.346Z,13.34
2023-11-22T12:54:00.000Z,13.41
2023-11-22T12:59:02.963Z,13.40
2023-11-22T13:04:05.860Z,13.45
2023-11-22T13:09:21.035Z,13.51
2023-11-22T13:14:24.711Z,13.48
2023-11-22T13:19:32.231Z,13.50
2023-11-22T13:24:37.558Z,13.48
2023-11-22T13:29:45.340Z,13.54
2023-11-22T13:34:47.523Z,13.64
2023-11-22T13:39:56.501Z,13.56
2023-11-22T13:45:01.714Z,13.59
2023-11-22T13:50:05.153Z,13.64
2023-11-22T13:55:11.955Z,13.63
2023-11-22T14:00:20.746Z,13.57
2023-11-22T14:05:36.337Z,13.47
2023-11-22T14:10:42.373Z,13.52
2023-11-22T14:15:50.409Z,13.50
2023-11-22T14:20:57.600Z,13.52
2023-11-22T14:26:04.143Z,13.45
2023-11-22T14:31:09.408Z,13.50
2023-11-22T14:36:13.576Z,13.50
2023-11-22T14:41:15.841Z,13.43
2023-11-22T14:46:19.108Z,13.48
2023-11-22T14:51:21.338Z,13.45
2023-11-22T14:56:24.417Z,13.42
2023-11-22T15:01:27.532Z,13.34
2023-11-22T15:06:29.760Z,13.29
2023-11-22T15:11:32.223Z,13.23
2023-11-22T15:16:35.116Z,13.19
2023-11-22T15:21:37.929Z,13.18
2023-11-22T15:26:40.259Z,13.13
2023-11-22T15:31:42.862Z,13.03
2023-11-22T15:36:44.836Z,12.97
2023-11-22T15:41:47.455Z,12.93
2023-11-22T15:46:49.694Z,12.81
2023-11-22T15:51:52.219Z,12.78
2023-11-22T15:56:54.735Z,12.78
2023-11-22T16:01:57.722Z,12.72
2023-11-22T16:07:00.075Z,12.66
2023-11-22T16:12:02.452Z,12.64
2023-11-22T16:17:06.045Z,12.51
2023-11-22T16:22:08.474Z,12.45
2023-11-22T16:27:10.759Z,12.38
2023-11-22T16:32:13.099Z,12.24
2023-11-22T16:37:15.369Z,12.11
2023-11-22T16:42:21.746Z,11.99
2023-11-22T16:47:25.444Z,11.87
2023-11-22T16:52:30.407Z,11.82
2023-11-22T16:57:33.748Z,11.73
2023-11-22T17:02:37.108Z,11.70
2023-11-22T17:07:39.328Z,11.67
2023-11-22T17:12:41.893Z,11.74
2023-11-22T17:17:45.160Z,11.77
2023-11-22T17:22:47.494Z,11.53
2023-11-22T17:27:55.102Z,11.31
2023-11-22T17:32:58.635Z,11.27
2023-11-22T17:38:01.968Z,11.18
2023-11-22T17:43:04.462Z,11.03
2023-11-22T17:48:07.196Z,10.87
2023-11-22T17:53:09.702Z,10.78
2023-11-22T17:58:12.822Z,10.76
2023-11-22T18:03:15.341Z,10.66
2023-11-22T18:08:21.142Z,10.66
2023-11-22T18:13:23.315Z,10.47
2023-11-22T18:18:25.749Z,10.44
2023-11-22T18:23:29.885Z,10.35
2023-11-22T18:28:32.199Z,10.39
2023-11-22T18:33:35.192Z,10.40
2023-11-22T18:38:38.014Z,10.37
2023-11-22T18:43:40.291Z,10.38
2023-11-22T18:48:42.795Z,10.43
2023-11-22T18:53:45.619Z,10.35
2023-11-22T18:58:49.023Z,10.28
2023-11-22T19:03:52.043Z,10.28
2023-11-22T19:09:00.280Z,10.28
2023-11-22T19:14:04.493Z,10.36
2023-11-22T19:19:06.970Z,10.33
2023-11-22T19:24:09.369Z,10.31
2023-11-22T19:29:12.520Z,10.31
2023-11-22T19:34:17.730Z,10.29
2023-11-22T19:39:20.933Z,10.22
2023-11-22T19:44:23.623Z,10.17
2023-11-22T19:49:26.338Z,10.16
2023-11-22T19:54:28.783Z,10.06
2023-11-22T19:59:33.448Z,10.00
2023-11-22T20:04:36.465Z,9.98
2023-11-22T20:09:39.043Z,10.04
2023-11-22T20:14:41.466Z,10.09
2023-11-22T20:19:44.261Z,10.06
2023-11-22T20:24:47.349Z,9.97
2023-11-22T20:29:52.232Z,9.95
2023-11-22T20:34:55.075Z,9.94
2023-11-22T20:39:57.657Z,10.11
2023-11-22T20:45:00.082Z,10.25
2023-11-22T20:50:02.411Z,10.41
2023-11-22T20:55:09.909Z,10.48
2023-11-22T21:00:12.949Z,10.49
2023-11-22T21:05:18.244Z,10.41
2023-11-22T21:10:20.892Z,10.27
2023-11-22T21:15:24.418Z,10.19
2023-11-22T21:20:26.727Z,10.07
2023-11-22T21:25:28.966Z,10.02
2023-11-22T21:30:31.772Z,9.92
2023-11-22T21:35:34.042Z,9.90
2023-11-22T21:40:40.411Z,9.91
2023-11-22T21:45:51.287Z,9.82
2023-11-22T21:50:54.070Z,9.71
2023-11-22T21:55:56.503Z,9.59
2023-11-22T22:00:58.685Z,9.49
2023-11-22T22:06:01.494Z,9.45
2023-11-22T22:11:04.635Z,9.30
2023-11-22T22:16:07.376Z,9.21
2023-11-22T22:21:09.885Z,9.04
2023-11-22T22:26:12.173Z,8.91
2023-11-22T22:31:15.824Z,8.76
2023-11-22T22:36:19.613Z,8.81
2023-11-22T22:41:22.922Z,8.71
2023-11-22T22:46:25.036Z,8.65
2023-11-22T22:51:27.694Z,8.66
2023-11-22T22:56:30.626Z,8.61
2023-11-22T23:01:32.948Z,8.54
2023-11-22T23:06:37.252Z,8.50
2023-11-22T23:11:39.656Z,8.33
2023-11-22T23:16:42.118Z,8.24
2023-11-22T23:21:46.151Z,8.19
2023-11-22T23:26:49.784Z,8.18
2023-11-22T23:31:53.580Z,8.03
2023-11-22T23:36:56.806Z,8.06
2023-11-22T23:41:59.365Z,8.04
2023-11-22T23:47:02.499Z,7.98
2023-11-22T23:52:05.199Z,7.92
2023-11-22T23:57:07.651Z,7.76
